Time;durP1;ratioP1;P1;durP2;ratioP2;P2;SDS_P1;SDS_P2;PMS_P1;PMS_P2;Temp;Humidity;BMP_temperature;BMP_pressure;BME280_temperature;BME280_humidity;BME280_pressure;Samples;Min_cycle;Max_cycle;Signal;HPM_P1;HPM_P2
2022/12/22 03:27:11;;;;;;;;;3.75;1.75;;;;;14.00;78.91;100239.59;5078190;28;45652;-60
2022/12/22 03:29:37;;;;;;;;;3.50;1.50;;;;;14.02;78.93;100239.50;5077119;28;45615;-60
2022/12/22 03:32:02;;;;;;;;;7.75;4.75;;;;;13.96;79.34;100234.47;5077701;28;45330;-60
2022/12/22 03:34:27;;;;;;;;;6.25;1.50;;;;;14.01;79.14;100257.41;5087028;27;45592;-60
2022/12/22 03:36:53;;;;;;;;;2.00;1.00;;;;;13.99;78.89;100253.94;5073915;28;46247;-60
2022/12/22 03:39:18;;;;;;;;;2.50;1.75;;;;;13.96;78.95;100255.94;5077569;27;45622;-60
2022/12/22 03:47:11;;;;;;;;;5.00;2.25;;;;;14.01;79.06;100262.75;5081552;28;45376;-60
2022/12/22 03:49:37;;;;;;;;;0.25;0.25;;;;;13.97;78.99;100268.41;5080421;28;45316;-60
2022/12/22 03:52:02;;;;;;;;;5.00;1.00;;;;;13.98;78.60;100267.44;5081791;27;45782;-59
2022/12/22 03:54:28;;;;;;;;;2.75;1.00;;;;;13.97;78.61;100263.03;5081590;27;45636;-60
2022/12/22 03:56:53;;;;;;;;;1.00;1.00;;;;;14.01;78.40;100280.69;5080658;28;45881;-60
2022/12/22 03:59:19;;;;;;;;;2.00;1.00;;;;;13.99;78.38;100264.66;5079279;28;45402;-59
2022/12/22 04:01:50;;;;;;;;;2.50;1.00;;;;;13.95;78.08;100263.13;5081523;27;45458;-60
2022/12/22 04:04:18;;;;;;;;;5.00;1.50;;;;;13.93;78.07;100262.31;5081374;27;45291;-60
2022/12/22 04:06:44;;;;;;;;;2.25;1.00;;;;;13.98;78.16;100271.00;5080799;27;45437;-60
2022/12/22 04:09:10;;;;;;;;;1.75;1.00;;;;;13.94;78.21;100269.41;5075556;27;46038;-60
2022/12/22 04:14:20;;;;;;;;;3.00;2.00;;;;;13.95;78.04;100281.91;5081129;28;45706;-60
2022/12/22 04:16:45;;;;;;;;;3.00;1.00;;;;;13.95;78.20;100279.22;5081249;27;46026;-60
2022/12/22 04:19:11;;;;;;;;;2.00;1.00;;;;;13.92;77.64;100291.94;5081133;27;45494;-60
2022/12/22 04:21:36;;;;;;;;;1.25;1.00;;;;;13.80;77.64;100262.13;5070812;28;45475;-60
2022/12/22 04:24:02;;;;;;;;;2.75;1.00;;;;;13.90;77.82;100279.47;5076788;28;45345;-60
2022/12/22 04:26:27;;;;;;;;;3.00;1.00;;;;;13.88;77.54;100291.22;5079842;28;48346;-60
2022/12/22 04:28:53;;;;;;;;;3.00;1.00;;;;;13.86;77.67;100299.34;5080967;27;45552;-60
2022/12/22 04:31:20;;;;;;;;;3.00;0.00;;;;;13.89;77.42;100299.19;5079092;27;45347;-60
2022/12/22 04:33:45;;;;;;;;;2.25;1.00;;;;;13.84;77.36;100316.47;5079960;27;45330;-60
2022/12/22 04:36:12;;;;;;;;;3.50;0.25;;;;;13.87;77.45;100345.84;5066088;27;48443;-60
2022/12/22 04:38:38;;;;;;;;;5.50;1.00;;;;;13.84;77.40;100337.94;5079370;28;45928;-60
2022/12/22 04:41:04;;;;;;;;;2.00;1.00;;;;;13.93;77.20;100364.28;5078139;27;45445;-60
2022/12/22 04:43:29;;;;;;;;;1.00;1.00;;;;;13.94;77.26;100363.34;5079741;28;45591;-60
2022/12/22 04:45:55;;;;;;;;;2.00;0.00;;;;;13.96;76.97;100369.47;5113823;27;46261;-60
2022/12/22 04:48:22;;;;;;;;;1.00;1.00;;;;;13.96;76.88;100382.03;5080617;27;45386;-60
2022/12/22 04:50:55;;;;;;;;;1.00;0.00;;;;;13.96;76.96;100390.94;5080911;28;45481;-60
2022/12/22 04:53:21;;;;;;;;;0.00;0.00;;;;;13.89;76.85;100371.63;5080670;27;45444;-60
2022/12/22 04:56:08;;;;;;;;;0.25;0.25;;;;;13.93;77.15;100395.59;5080035;27;46052;-60
2022/12/22 04:58:35;;;;;;;;;1.25;0.00;;;;;13.92;76.87;100399.25;5074051;28;45390;-60
2022/12/22 05:01:09;;;;;;;;;0.00;0.00;;;;;13.90;76.93;100404.72;5073617;27;45508;-60
2022/12/22 05:03:34;;;;;;;;;0.00;0.00;;;;;13.86;76.49;100406.66;5082026;27;45733;-60
2022/12/22 05:05:59;;;;;;;;;1.50;0.00;;;;;13.92;76.75;100424.25;5081967;27;46018;-60
2022/12/22 05:08:25;;;;;;;;;2.00;0.25;;;;;13.94;76.64;100427.72;5076525;28;45496;-60
2022/12/22 05:10:50;;;;;;;;;0.25;0.00;;;;;13.78;76.07;100408.00;5079661;28;45642;-60
2022/12/22 05:13:15;;;;;;;;;0.25;0.00;;;;;13.86;76.03;100432.63;5080288;28;45327;-60
2022/12/22 05:15:40;;;;;;;;;1.00;0.00;;;;;13.81;76.10;100432.00;5080202;27;45489;-60
2022/12/22 05:18:06;;;;;;;;;0.25;0.25;;;;;13.88;75.99;100447.72;5080105;28;45521;-60
2022/12/22 05:20:34;;;;;;;;;1.50;0.00;;;;;13.83;75.98;100438.13;5079643;28;45820;-60
2022/12/22 05:22:59;;;;;;;;;0.00;0.00;;;;;13.91;76.20;100457.41;5078611;28;45791;-59
2022/12/22 05:25:25;;;;;;;;;0.50;0.00;;;;;13.81;75.76;100445.41;5079981;27;45498;-60
2022/12/22 05:27:50;;;;;;;;;0.00;0.00;;;;;13.89;75.81;100453.94;5080222;27;45417;-60
2022/12/22 05:30:18;;;;;;;;;0.00;0.00;;;;;13.88;75.50;100460.22;5078487;27;45476;-60
2022/12/22 05:32:43;;;;;;;;;0.25;0.00;;;;;13.90;75.82;100464.59;5078588;27;45408;-59
2022/12/22 05:35:09;;;;;;;;;0.00;0.00;;;;;13.86;75.41;100462.13;5074377;28;45468;-60
2022/12/22 05:37:34;;;;;;;;;0.00;0.00;;;;;13.92;75.57;100464.53;5081146;27;45453;-60
2022/12/22 05:40:00;;;;;;;;;0.50;0.00;;;;;13.93;75.58;100471.59;5078154;27;45863;-60
2022/12/22 05:42:37;;;;;;;;;2.75;0.50;;;;;13.92;75.37;100472.56;5079782;27;45243;-60
2022/12/22 05:45:08;;;;;;;;;1.00;0.00;;;;;13.98;75.32;100485.69;5078934;28;46386;-60
2022/12/22 05:47:34;;;;;;;;;0.75;0.00;;;;;13.92;75.60;100480.63;5075170;27;45369;-60
2022/12/22 05:50:00;;;;;;;;;2.50;0.00;;;;;13.90;75.22;100487.88;5072670;28;45454;-60
2022/12/22 05:52:25;;;;;;;;;0.00;0.00;;;;;13.96;75.70;100505.47;5079800;28;45536;-60
2022/12/22 05:54:51;;;;;;;;;1.50;0.00;;;;;13.92;75.39;100502.09;5078847;28;46309;-60
2022/12/22 05:57:16;;;;;;;;;0.00;0.00;;;;;13.95;75.71;100519.81;5112374;27;45536;-60
2022/12/22 05:59:42;;;;;;;;;0.00;0.00;;;;;13.95;75.85;100509.09;5078947;27;45260;-60
2022/12/22 06:02:07;;;;;;;;;0.00;0.00;;;;;13.86;75.97;100497.00;5079222;27;45554;-60
2022/12/22 06:04:32;;;;;;;;;0.00;0.00;;;;;13.89;76.27;100508.44;5079052;27;45325;-59
2022/12/22 06:06:57;;;;;;;;;0.00;0.00;;;;;13.89;76.24;100519.19;5079320;27;45442;-60
2022/12/22 06:09:23;;;;;;;;;0.00;0.00;;;;;13.86;77.13;100518.47;5079791;27;45597;-60
2022/12/22 06:11:48;;;;;;;;;0.00;0.00;;;;;13.88;76.73;100538.94;5079567;28;45616;-60
2022/12/22 06:14:13;;;;;;;;;1.00;0.00;;;;;13.92;77.11;100545.00;5069089;27;45449;-60
2022/12/22 06:16:39;;;;;;;;;0.00;0.00;;;;;13.88;77.51;100533.56;5078718;27;45471;-60
2022/12/22 06:19:04;;;;;;;;;0.00;0.00;;;;;13.90;77.76;100538.88;5073395;28;45469;-60
2022/12/22 06:21:29;;;;;;;;;2.50;0.00;;;;;13.88;77.76;100538.94;5076556;28;45485;-60
2022/12/22 06:23:55;;;;;;;;;1.00;0.00;;;;;13.80;78.08;100534.88;5077344;28;46082;-60
2022/12/22 06:26:20;;;;;;;;;0.25;0.00;;;;;13.79;78.23;100530.47;5079279;27;45433;-60
2022/12/22 06:28:46;;;;;;;;;2.00;2.00;;;;;13.89;78.17;100550.53;5058058;28;45486;-60
2022/12/22 06:31:12;;;;;;;;;4.00;4.00;;;;;13.76;78.66;100528.78;5077593;27;45554;-60
2022/12/22 06:33:37;;;;;;;;;1.50;1.00;;;;;13.86;78.71;100550.66;5077180;27;45336;-60
2022/12/22 06:36:04;;;;;;;;;0.00;0.00;;;;;13.83;78.52;100545.44;5063629;28;45566;-60
2022/12/22 06:38:29;;;;;;;;;36.75;33.25;;;;;13.86;78.95;100564.94;5065697;28;45337;-59
2022/12/22 06:40:55;;;;;;;;;6.00;3.00;;;;;13.84;78.63;100563.31;5075347;28;45276;-60
2022/12/22 06:43:20;;;;;;;;;4.00;2.00;;;;;13.85;78.80;100581.16;5077509;28;46294;-60
2022/12/22 06:45:45;;;;;;;;;1.75;0.75;;;;;13.80;78.75;100575.09;5078726;28;45301;-60
2022/12/22 06:48:11;;;;;;;;;1.00;1.00;;;;;13.81;78.76;100587.59;5079181;27;45469;-60
2022/12/22 06:50:37;;;;;;;;;4.50;1.50;;;;;13.80;78.80;100588.53;5078534;28;45495;-60
2022/12/22 06:53:04;;;;;;;;;4.00;1.50;;;;;13.82;78.39;100594.72;5077239;28;48175;-60
2022/12/22 06:55:29;;;;;;;;;2.25;1.75;;;;;13.77;78.72;100589.56;5077641;27;45599;-60
2022/12/22 06:57:55;;;;;;;;;4.75;2.00;;;;;13.82;78.55;100594.72;5078797;28;45381;-60
2022/12/22 07:00:20;;;;;;;;;4.50;1.75;;;;;13.77;78.89;100588.69;5075711;28;45607;-60
2022/12/22 07:02:46;;;;;;;;;6.00;2.00;;;;;13.79;78.61;100600.22;5077401;27;45509;-60
2022/12/22 07:05:11;;;;;;;;;3.75;1.25;;;;;13.76;78.50;100597.69;5077988;27;45396;-60
2022/12/22 07:07:37;;;;;;;;;5.50;0.00;;;;;13.82;78.41;100608.97;5077082;27;45523;-60
2022/12/22 07:10:03;;;;;;;;;2.50;2.00;;;;;13.70;78.36;100585.44;5075985;27;45755;-61
2022/12/22 07:12:28;;;;;;;;;5.75;2.00;;;;;13.79;78.36;100601.06;5073854;27;47590;-61
2022/12/22 07:14:55;;;;;;;;;4.50;1.75;;;;;13.83;78.89;100607.16;5074045;28;45540;-61
2022/12/22 07:17:20;;;;;;;;;3.75;3.00;;;;;13.75;78.38;100595.94;5077082;28;45409;-61
2022/12/22 07:19:45;;;;;;;;;5.50;3.00;;;;;13.82;78.80;100616.16;5078354;27;45618;-61
2022/12/22 07:22:11;;;;;;;;;5.00;3.75;;;;;13.82;78.67;100621.53;5077382;28;46191;-61
2022/12/22 07:24:36;;;;;;;;;4.00;4.00;;;;;13.71;78.47;100609.50;5087516;27;45376;-61
2022/12/22 07:27:01;;;;;;;;;7.50;3.00;;;;;13.71;78.60;100601.47;5088330;27;45308;-61
2022/12/22 07:29:27;;;;;;;;;3.50;1.00;;;;;13.77;78.60;100621.75;5078949;27;45341;-61
2022/12/22 07:31:52;;;;;;;;;5.00;3.00;;;;;13.65;78.60;100596.38;5077802;28;45413;-60
2022/12/22 07:34:18;;;;;;;;;7.00;3.75;;;;;13.75;78.21;100610.22;5078116;27;45344;-61
2022/12/22 07:36:43;;;;;;;;;6.25;3.75;;;;;13.78;78.52;100619.94;5078401;28;45505;-61
2022/12/22 07:39:10;;;;;;;;;6.00;6.00;;;;;13.66;78.24;100607.97;5070578;28;45764;-60
2022/12/22 07:44:19;;;;;;;;;9.50;5.50;;;;;13.75;78.49;100639.75;5072926;27;45627;-61
2022/12/22 07:46:44;;;;;;;;;7.50;4.50;;;;;13.77;78.52;100651.25;5078161;27;45357;-61
2022/12/22 07:51:56;;;;;;;;;5.25;3.75;;;;;13.75;78.44;100649.56;5073769;27;45429;-59
2022/12/22 07:54:22;;;;;;;;;9.25;4.00;;;;;13.74;78.32;100648.72;5077058;27;45650;-59
2022/12/22 07:56:47;;;;;;;;;9.00;7.25;;;;;13.62;78.12;100620.66;5077432;27;45464;-59
2022/12/22 07:59:13;;;;;;;;;10.00;7.00;;;;;13.68;78.41;100628.44;5076347;27;45605;-59
2022/12/22 08:01:40;;;;;;;;;8.00;5.50;;;;;13.75;78.32;100645.09;5077612;27;45675;-59
2022/12/22 08:04:06;;;;;;;;;11.75;7.00;;;;;13.77;78.21;100643.22;5069533;28;45604;-60
2022/12/22 08:06:33;;;;;;;;;11.75;6.25;;;;;13.75;78.41;100649.56;5077934;28;45389;-60
2022/12/22 08:08:58;;;;;;;;;11.00;5.25;;;;;13.67;78.42;100640.09;5074094;28;46126;-60
2022/12/22 08:11:23;;;;;;;;;10.25;5.00;;;;;13.77;78.52;100656.63;5076446;28;46066;-60
2022/12/22 08:13:49;;;;;;;;;9.50;5.25;;;;;13.72;78.34;100647.94;5075987;28;45474;-60
2022/12/22 08:16:15;;;;;;;;;12.75;7.75;;;;;13.67;78.25;100647.28;5073673;27;45476;-60
2022/12/22 08:18:40;;;;;;;;;9.00;6.25;;;;;13.75;78.40;100666.56;5085110;27;45523;-60
2022/12/22 08:21:07;;;;;;;;;8.25;6.50;;;;;13.69;78.37;100651.59;5074866;27;46007;-60
2022/12/22 08:23:33;;;;;;;;;8.25;8.25;;;;;13.65;77.98;100652.72;5074432;27;45398;-60
2022/12/22 08:26:09;;;;;;;;;5.50;4.25;;;;;13.75;78.33;100677.28;5077674;27;45445;-60
2022/12/22 08:28:40;;;;;;;;;12.25;7.00;;;;;13.71;78.20;100663.16;5076322;27;45406;-60
2022/12/22 08:31:06;;;;;;;;;8.75;4.25;;;;;13.68;77.98;100665.97;5079386;27;45624;-60
2022/12/22 08:33:32;;;;;;;;;6.25;3.75;;;;;13.72;78.03;100680.13;5084730;27;45385;-60
2022/12/22 08:35:58;;;;;;;;;13.00;5.00;;;;;13.71;78.26;100686.41;5078048;27;46013;-60
2022/12/22 08:38:23;;;;;;;;;8.75;7.50;;;;;13.61;78.13;100667.19;5079843;27;45538;-60
2022/12/22 08:40:49;;;;;;;;;8.75;6.75;;;;;13.70;77.99;100692.72;5078770;27;46421;-60
2022/12/22 08:43:17;;;;;;;;;11.75;6.75;;;;;13.62;78.02;100668.94;5078191;27;45359;-60
2022/12/22 08:45:42;;;;;;;;;7.75;3.00;;;;;13.68;77.78;100671.34;5078037;27;45325;-60
2022/12/22 08:48:09;;;;;;;;;9.50;6.50;;;;;13.53;77.70;100645.22;5078296;27;45570;-60
2022/12/22 08:50:34;;;;;;;;;9.00;6.00;;;;;13.73;78.00;100678.28;5079652;27;45449;-59
2022/12/22 08:53:06;;;;;;;;;8.00;6.50;;;;;13.71;77.82;100670.31;5075454;27;45467;-60
2022/12/22 08:55:32;;;;;;;;;15.25;6.25;;;;;13.69;77.59;100667.69;5077813;28;45359;-60
2022/12/22 08:57:57;;;;;;;;;7.25;5.00;;;;;13.74;77.98;100667.50;5079791;27;45512;-60
2022/12/22 09:00:23;;;;;;;;;12.00;8.00;;;;;13.63;77.87;100648.34;5087510;27;48288;-60
2022/12/22 09:02:49;;;;;;;;;12.75;6.75;;;;;13.50;77.73;100635.50;5078319;28;45444;-60
2022/12/22 09:05:14;;;;;;;;;16.25;7.50;;;;;13.69;77.66;100675.75;5095330;27;45575;-59
2022/12/22 09:07:40;;;;;;;;;9.00;4.00;;;;;13.65;77.85;100668.81;5079442;27;45552;-60
2022/12/22 09:10:07;;;;;;;;;10.50;9.25;;;;;13.64;77.85;100666.19;5077440;27;47057;-60
2022/12/22 09:12:33;;;;;;;;;7.50;6.25;;;;;13.70;77.94;100672.13;5079669;27;45460;-60
2022/12/22 09:14:58;;;;;;;;;9.25;6.50;;;;;13.70;77.54;100672.13;5078656;28;45747;-60
2022/12/22 09:17:23;;;;;;;;;10.00;5.75;;;;;13.68;77.58;100662.41;5071497;28;45705;-60
2022/12/22 09:19:49;;;;;;;;;8.50;5.25;;;;;13.73;77.82;100673.78;5078384;28;47274;-60
2022/12/22 09:22:14;;;;;;;;;14.75;8.00;;;;;13.67;77.95;100658.88;5079826;28;45373;-60
2022/12/22 09:24:39;;;;;;;;;7.75;6.25;;;;;13.75;77.50;100676.41;5070270;28;45333;-60
2022/12/22 09:27:07;;;;;;;;;14.50;5.50;;;;;13.75;77.55;100673.72;5079111;27;45452;-60
2022/12/22 09:29:33;;;;;;;;;10.25;6.00;;;;;13.79;77.75;100676.19;5077790;27;46477;-60
2022/12/22 09:31:58;;;;;;;;;14.25;8.50;;;;;13.82;77.44;100676.06;5079860;27;45422;-60
2022/12/22 09:34:24;;;;;;;;;11.25;7.25;;;;;13.80;77.76;100669.91;5078042;28;45449;-60
2022/12/22 09:36:49;;;;;;;;;10.50;7.50;;;;;13.82;77.92;100675.19;5072787;28;45499;-60
2022/12/22 09:39:14;;;;;;;;;3.00;1.00;;;;;13.78;77.54;100669.09;5070351;28;45434;-60
2022/12/22 09:41:55;;;;;;;;;13.00;8.75;;;;;13.75;77.55;100663.00;5072789;27;46506;-60
2022/12/22 09:44:25;;;;;;;;;11.50;8.75;;;;;13.83;77.45;100688.53;5083026;27;45628;-60
2022/12/22 09:46:52;;;;;;;;;9.75;7.25;;;;;13.84;77.49;100692.94;5083906;27;46894;-60
2022/12/22 09:49:19;;;;;;;;;8.25;6.50;;;;;13.86;77.08;100701.78;5079122;27;46337;-60
2022/12/22 09:52:01;;;;;;;;;7.75;7.25;;;;;13.88;77.40;100701.72;5077717;28;45694;-60
2022/12/22 09:54:28;;;;;;;;;12.00;9.75;;;;;13.81;77.76;100689.53;5069702;27;45878;-59
2022/12/22 09:56:53;;;;;;;;;9.25;6.25;;;;;13.88;77.51;100709.75;5076730;27;45484;-59
2022/12/22 09:59:20;;;;;;;;;11.25;7.00;;;;;13.92;77.49;100710.53;5077800;28;46321;-58
2022/12/22 10:02:23;;;;;;;;;13.50;6.75;;;;;13.90;77.47;100708.78;5077989;27;45391;-59
2022/12/22 10:05:05;;;;;;;;;10.25;8.00;;;;;13.93;77.53;100706.88;5074058;28;45691;-59
2022/12/22 10:07:41;;;;;;;;;9.00;9.00;;;;;13.86;77.70;100691.06;5076299;27;45928;-59
2022/12/22 10:10:29;;;;;;;;;9.25;7.50;;;;;13.93;77.46;100691.63;5078772;28;46227;-59
2022/12/22 10:12:58;;;;;;;;;5.00;5.00;;;;;13.89;77.46;100684.69;5079206;28;45342;-60
2022/12/22 10:15:24;;;;;;;;;14.25;6.75;;;;;13.92;77.65;100695.28;5079323;28;45476;-60
2022/12/22 10:17:52;;;;;;;;;12.25;8.25;;;;;13.88;77.32;100680.25;5083498;27;45556;-60
2022/12/22 10:20:20;;;;;;;;;10.00;4.50;;;;;13.97;77.73;100697.75;5076956;28;46953;-60
2022/12/22 10:22:57;;;;;;;;;15.75;9.00;;;;;13.87;77.09;100670.47;5074803;28;45565;-60
2022/12/22 10:25:32;;;;;;;;;11.00;8.75;;;;;14.00;77.06;100693.09;5078044;27;46661;-60
2022/12/22 10:28:00;;;;;;;;;10.75;8.50;;;;;13.99;77.51;100688.66;5064748;27;45498;-60
2022/12/22 10:30:30;;;;;;;;;9.75;8.00;;;;;13.97;77.32;100681.66;5070960;27;46718;-60
2022/12/22 10:33:10;;;;;;;;;13.50;7.00;;;;;13.98;77.43;100695.00;5078637;28;45318;-60
2022/12/22 10:35:46;;;;;;;;;17.50;8.50;;;;;13.98;77.35;100686.06;5095340;27;45432;-60
2022/12/22 10:38:31;;;;;;;;;16.00;7.50;;;;;14.00;77.45;100684.16;5099793;27;45886;-60
2022/12/22 10:41:20;;;;;;;;;15.00;7.75;;;;;14.01;77.95;100692.16;5075898;28;45334;-60
2022/12/22 10:43:47;;;;;;;;;10.50;8.00;;;;;14.04;77.45;100689.31;5079505;28;45321;-60
2022/12/22 10:46:13;;;;;;;;;10.00;6.00;;;;;14.05;77.37;100693.75;5078500;28;45742;-59
2022/12/22 10:48:39;;;;;;;;;10.75;8.50;;;;;14.08;77.82;100690.03;5063684;28;45750;-60
2022/12/22 10:51:07;;;;;;;;;10.00;7.00;;;;;14.04;77.48;100683.94;5076297;27;45626;-60
2022/12/22 10:53:54;;;;;;;;;7.50;5.50;;;;;14.12;77.85;100693.47;5081566;27;45322;-59
2022/12/22 10:56:22;;;;;;;;;8.50;6.25;;;;;14.12;77.51;100696.16;5076106;27;45534;-60
2022/12/22 10:59:03;;;;;;;;;11.50;7.75;;;;;14.13;77.36;100682.63;5073678;28;45620;-60
2022/12/22 11:01:31;;;;;;;;;11.00;8.75;;;;;13.95;77.51;100645.94;5076989;28;45662;-60
2022/12/22 11:04:15;;;;;;;;;8.75;6.25;;;;;14.16;76.93;100682.50;5078215;27;45557;-60
2022/12/22 11:06:44;;;;;;;;;13.75;8.00;;;;;14.19;76.97;100686.84;5080794;27;45403;-60
2022/12/22 11:09:10;;;;;;;;;7.25;7.00;;;;;14.14;77.44;100673.66;5065030;28;45359;-60
2022/12/22 11:12:14;;;;;;;;;9.25;6.00;;;;;14.22;77.03;100678.66;5078120;27;46554;-60
2022/12/22 11:15:05;;;;;;;;;15.50;8.50;;;;;14.22;76.76;100682.19;5069378;28;45543;-60
2022/12/22 11:17:30;;;;;;;;;12.75;9.00;;;;;14.21;76.75;100684.97;5076081;28;45333;-60
2022/12/22 11:20:14;;;;;;;;;11.50;7.50;;;;;14.20;76.91;100678.72;5078125;27;45629;-59
2022/12/22 11:22:48;;;;;;;;;13.50;8.25;;;;;14.21;76.82;100674.22;5078295;28;45418;-60
2022/12/22 11:25:24;;;;;;;;;11.75;6.25;;;;;14.15;76.61;100659.28;5077026;27;45641;-60
2022/12/22 11:28:23;;;;;;;;;14.25;8.00;;;;;14.19;76.53;100665.38;5077312;27;45369;-60
2022/12/22 11:31:10;;;;;;;;;13.25;7.00;;;;;14.26;76.20;100661.44;5070744;28;45673;-60
2022/12/22 11:33:41;;;;;;;;;11.50;6.75;;;;;14.28;76.67;100670.28;5077750;28;45548;-60
2022/12/22 11:36:26;;;;;;;;;11.00;6.00;;;;;14.22;76.43;100660.72;5088666;27;45328;-60
2022/12/22 11:38:59;;;;;;;;;9.75;7.25;;;;;14.20;76.13;100645.63;5078087;27;45432;-60
2022/12/22 11:41:27;;;;;;;;;10.00;6.00;;;;;14.31;76.33;100670.13;5072623;28;45561;-60
2022/12/22 11:43:55;;;;;;;;;10.25;7.25;;;;;14.31;76.21;100667.44;5076326;28;47461;-60
2022/12/22 11:46:58;;;;;;;;;11.25;7.75;;;;;14.29;76.33;100655.94;5068596;28;46004;-60
2022/12/22 11:49:56;;;;;;;;;13.00;8.00;;;;;14.33;76.50;100657.50;5076993;28;45461;-59
2022/12/22 11:52:30;;;;;;;;;12.75;8.00;;;;;14.36;76.51;100659.19;5073451;28;45441;-60
2022/12/22 11:55:13;;;;;;;;;9.25;9.00;;;;;14.36;76.49;100659.19;5069567;28;45473;-59
2022/12/22 11:57:59;;;;;;;;;10.00;7.25;;;;;14.38;76.13;100651.91;5074875;28;45752;-60
2022/12/22 12:00:27;;;;;;;;;10.25;6.50;;;;;14.38;76.05;100642.06;5074763;28;45465;-59
2022/12/22 12:03:08;;;;;;;;;8.50;6.00;;;;;14.40;76.29;100645.53;5099457;27;45827;-60
2022/12/22 12:05:36;;;;;;;;;18.00;7.25;;;;;14.41;76.04;100641.03;5079976;28;46433;-59
2022/12/22 12:08:41;;;;;;;;;18.75;9.00;;;;;14.36;76.44;100629.63;5071675;28;45722;-59
2022/12/22 12:11:21;;;;;;;;;9.75;8.25;;;;;14.37;76.15;100621.50;5075355;27;45572;-59
2022/12/22 12:14:21;;;;;;;;;13.00;7.75;;;;;14.48;76.16;100636.22;5082764;27;45676;-60
2022/12/22 12:17:32;;;;;;;;;9.50;6.25;;;;;14.50;76.15;100632.50;5057413;28;45997;-60
2022/12/22 12:20:18;;;;;;;;;13.50;7.75;;;;;14.49;76.04;100620.03;5039733;28;45375;-60
2022/12/22 12:22:55;;;;;;;;;11.75;10.50;;;;;14.50;76.03;100616.41;5058349;28;45472;-60
2022/12/22 12:25:46;;;;;;;;;10.50;8.75;;;;;14.49;76.00;100621.84;5081705;27;45446;-60
2022/12/22 12:28:32;;;;;;;;;15.50;8.00;;;;;14.43;75.81;100609.56;5080836;27;46141;-60
2022/12/22 12:30:59;;;;;;;;;10.00;6.75;;;;;14.40;75.94;100599.88;5080824;28;45258;-60
2022/12/22 12:33:46;;;;;;;;;14.50;6.75;;;;;14.45;76.20;100605.03;5080630;27;45733;-60
2022/12/22 12:36:28;;;;;;;;;14.00;9.75;;;;;14.38;75.70;100588.34;5079930;27;45398;-60
2022/12/22 12:39:10;;;;;;;;;12.25;8.25;;;;;14.46;76.11;100585.25;5076157;28;45432;-60
2022/12/22 12:41:50;;;;;;;;;10.00;6.50;;;;;14.49;76.04;100592.31;5076021;28;45287;-60
2022/12/22 12:44:19;;;;;;;;;14.00;9.50;;;;;14.40;75.79;100570.34;5065531;28;45483;-60
2022/12/22 12:46:58;;;;;;;;;12.00;7.25;;;;;14.42;76.15;100573.81;5073339;28;45600;-60
2022/12/22 12:49:32;;;;;;;;;8.25;6.50;;;;;14.45;75.85;100570.97;5068448;27;45399;-60
2022/12/22 12:52:00;;;;;;;;;12.00;9.25;;;;;14.28;75.88;100546.78;5067865;27;45547;-60
2022/12/22 12:54:25;;;;;;;;;12.25;6.50;;;;;14.48;75.89;100569.06;5079779;27;45462;-59
2022/12/22 12:57:23;;;;;;;;;12.75;7.00;;;;;14.52;75.89;100565.28;5062923;28;45526;-60
2022/12/22 12:59:50;;;;;;;;;13.50;9.00;;;;;14.52;76.17;100557.22;5055054;27;45968;-60
2022/12/22 13:02:36;;;;;;;;;13.75;7.00;;;;;14.52;75.90;100563.47;5068650;28;46059;-59
2022/12/22 13:05:11;;;;;;;;;7.75;6.00;;;;;14.51;76.21;100550.97;5071973;27;45823;-60
2022/12/22 13:08:04;;;;;;;;;9.50;5.75;;;;;14.49;76.40;100555.56;5074512;28;45906;-60
2022/12/22 13:10:31;;;;;;;;;12.00;6.75;;;;;14.43;76.47;100550.50;5074886;28;45716;-60
2022/12/22 13:12:57;;;;;;;;;7.75;7.00;;;;;14.49;76.68;100543.97;5073982;28;45771;-60
2022/12/22 13:15:28;;;;;;;;;11.25;6.75;;;;;14.50;76.78;100535.81;5071388;28;45677;-60
2022/12/22 13:17:54;;;;;;;;;13.25;9.25;;;;;14.44;76.91;100525.41;5074209;28;45426;-59
2022/12/22 13:20:36;;;;;;;;;10.25;8.00;;;;;14.49;77.21;100533.22;5071894;28;47576;-60
2022/12/22 13:23:09;;;;;;;;;12.25;9.00;;;;;14.43;77.16;100513.78;5065957;28;45704;-60
2022/12/22 13:26:00;;;;;;;;;13.25;9.00;;;;;14.50;77.04;100532.25;5079525;28;45496;-60
2022/12/22 13:28:26;;;;;;;;;11.25;8.00;;;;;14.43;77.30;100513.78;5078759;28;45510;-60
2022/12/22 13:30:59;;;;;;;;;10.50;7.00;;;;;14.48;77.49;100523.41;5079551;28;45375;-60
2022/12/22 13:33:29;;;;;;;;;11.00;6.75;;;;;14.40;77.42;100513.94;5095248;27;45331;-59
2022/12/22 13:35:56;;;;;;;;;8.25;5.50;;;;;14.38;77.76;100499.75;5079470;27;45406;-59
2022/12/22 13:38:28;;;;;;;;;8.25;7.00;;;;;14.45;77.62;100511.03;5078520;27;45830;-59
2022/12/22 13:40:53;;;;;;;;;11.00;5.75;;;;;14.40;77.71;100500.53;5078268;28;45608;-60
2022/12/22 13:43:19;;;;;;;;;7.50;7.00;;;;;14.37;77.77;100495.31;5079057;27;45735;-60
2022/12/22 13:45:53;;;;;;;;;11.50;7.00;;;;;14.35;78.17;100488.25;5088398;27;45489;-60
2022/12/22 13:48:18;;;;;;;;;9.00;5.50;;;;;14.36;78.14;100496.25;5073323;28;45548;-60
2022/12/22 13:50:53;;;;;;;;;10.75;7.00;;;;;14.30;78.05;100485.84;5062478;27;48371;-60
2022/12/22 13:53:26;;;;;;;;;14.75;7.00;;;;;14.31;78.16;100492.94;5072162;27;45761;-60
2022/12/22 13:55:52;;;;;;;;;7.50;6.25;;;;;14.22;78.37;100475.50;5074714;27;45819;-60
2022/12/22 13:58:29;;;;;;;;;12.25;8.50;;;;;14.24;78.75;100476.28;5076876;27;45685;-60
2022/12/22 14:01:10;;;;;;;;;11.00;9.00;;;;;14.31;78.73;100487.56;5056893;28;48531;-60
2022/12/22 14:03:46;;;;;;;;;9.00;7.25;;;;;14.27;78.71;100486.00;5078573;28;45375;-60
2022/12/22 14:06:19;;;;;;;;;16.50;9.00;;;;;14.26;78.48;100478.88;5080819;27;45795;-60
2022/12/22 14:08:44;;;;;;;;;9.25;7.50;;;;;14.29;78.81;100480.56;5075430;28;45631;-60
2022/12/22 14:11:10;;;;;;;;;9.25;6.75;;;;;14.25;78.83;100475.34;5077287;28;46602;-60
2022/12/22 14:13:38;;;;;;;;;12.50;7.50;;;;;14.29;79.00;100476.03;5077413;28;45606;-60
2022/12/22 14:16:04;;;;;;;;;16.50;8.50;;;;;14.21;79.05;100468.38;5061407;27;47343;-60
2022/12/22 14:18:32;;;;;;;;;8.00;6.25;;;;;14.17;78.89;100455.22;5070676;28;45655;-60
2022/12/22 14:20:58;;;;;;;;;14.50;7.00;;;;;14.19;79.16;100456.00;5071559;27;46374;-60
2022/12/22 14:23:31;;;;;;;;;9.25;6.75;;;;;14.18;79.41;100449.75;5074544;28;46116;-60
2022/12/22 14:25:58;;;;;;;;;14.25;7.25;;;;;14.26;79.44;100463.63;5070914;28;45829;-60
2022/12/22 14:28:49;;;;;;;;;9.25;7.00;;;;;14.28;79.09;100458.19;5074185;27;45752;-60
2022/12/22 14:31:16;;;;;;;;;9.75;6.25;;;;;14.22;79.14;100431.69;5068829;27;46293;-60
2022/12/22 14:33:53;;;;;;;;;9.25;6.25;;;;;14.18;79.29;100430.97;5075024;27;45439;-60
2022/12/22 14:36:26;;;;;;;;;10.75;7.00;;;;;14.19;79.55;100442.56;5073680;28;45685;-60
2022/12/22 14:38:52;;;;;;;;;7.75;5.00;;;;;14.24;79.50;100449.44;5074992;27;45700;-60
2022/12/22 14:41:45;;;;;;;;;14.75;8.00;;;;;14.25;79.67;100447.63;5074772;27;46458;-60
2022/12/22 14:44:26;;;;;;;;;6.25;4.50;;;;;14.24;79.76;100424.41;5071988;27;45479;-60
2022/12/22 14:47:04;;;;;;;;;6.25;4.00;;;;;14.28;79.88;100423.28;5075619;27;45509;-60
2022/12/22 14:49:30;;;;;;;;;11.75;7.00;;;;;14.23;79.83;100404.75;5071155;27;45520;-60
2022/12/22 14:52:03;;;;;;;;;7.75;5.75;;;;;14.22;80.01;100399.47;5073477;28;46359;-60
2022/12/22 14:54:29;;;;;;;;;11.50;8.75;;;;;14.19;80.36;100399.63;5072726;27;45846;-60
2022/12/22 14:57:03;;;;;;;;;8.25;7.00;;;;;14.12;80.42;100382.13;5074895;27;45729;-60
2022/12/22 14:59:30;;;;;;;;;5.75;4.00;;;;;14.19;80.15;100388.88;5074412;27;45467;-60
2022/12/22 15:02:28;;;;;;;;;6.75;4.00;;;;;14.19;80.33;100380.84;5089208;27;47677;-61
2022/12/22 15:05:14;;;;;;;;;10.00;7.00;;;;;14.17;80.34;100364.81;5071343;28;45399;-60
2022/12/22 15:07:56;;;;;;;;;6.75;5.00;;;;;14.22;80.13;100356.50;5067784;27;45573;-60
2022/12/22 15:10:25;;;;;;;;;9.25;6.50;;;;;14.18;80.70;100353.13;5077439;27;45668;-60
2022/12/22 15:12:58;;;;;;;;;7.25;5.00;;;;;14.15;80.75;100344.34;5067536;28;45476;-60
2022/12/22 15:15:23;;;;;;;;;7.25;6.25;;;;;14.05;80.69;100331.44;5073234;27;45601;-60
2022/12/22 15:17:51;;;;;;;;;8.75;5.25;;;;;14.15;80.98;100337.19;5072743;27;45667;-60